Gloversville, New York
Current Conditions -  °F | °C
As of 1:15 PM on Friday 24 Oct 2014 (Local Time) from KNY0 Reporting Station
Overcast Overcast  
Wind Chill: 48°   Ceiling: 2700
Heat Index: 49°   Visibility: 10mi
Dew Point: 43°   Wind: 5mph
Humidity: 80%   Direction: 260°W
Pressure: 29.82"   Gusts: NA
Location:  43.06°N, 74.34°W
Report Text: KNY0 241715Z AUTO 26004KT 10SM OVC027 10/06 A2982 RMK AO2 T00960063
Loading
Personal Weather Stations






























Interactive Weather Map
Tropical Storm Tracking
New forecast layout! Learn more

10-Day Weather Forecast

Advertisements
Track Severe Weather on mobile